Address 0x183c889fd83936d26545e9ae7fc23e202d117df4 2

Overview

Balance:
0.99807816 BNB

Token:
My Name Tag:
Not Available

Txn Hash Method
Block
From
To
Value [Txn Fee]
0xfe2a47dfdd454cb2b8a6b1a3a27e3d3dfe64c95133e3def10bce074d1febb9490x60806040121603962021-09-07 13:59:3920 days 22 hrs ago0x183c889fd83936d26545e9ae7fc23e202d117df4OUT Contract Creation0 BNB0.09426936
0x18f06ba442066beaf5b7452ef07a7a1d997d2a298ab78633e4a80bdbd54cde01Initialize116385582021-08-20 8:19:3439 days 4 hrs ago0x183c889fd83936d26545e9ae7fc23e202d117df4OUT 0x670d92a6689209550a8433c2f8e48bd5a1908fbf0 BNB0.00134602
0xc753c9b4f5a68ddb86817f492baffe83510681db99a8b3d6ba0370f20adff619Transfer114436522021-08-13 12:28:0146 days 7 mins ago0x183c889fd83936d26545e9ae7fc23e202d117df4OUT 0x0c97bffaa448ea2e46d727add6038e6db25c74090 BNB0.00036115
0x44e4802eedbfb66107867c5b6af010ccfea78025fbb5f00d646c3ac70a5a971dApprove114132532021-08-12 11:07:4547 days 1 hr ago0x183c889fd83936d26545e9ae7fc23e202d117df4OUT 0xfa5ee7359d643dbd6ba5716ee7b500f82d56af150 BNB0.00044166
0x01338c3e7f79bbc0f41c14efb3f5e14eee3f1b3274ffa1ed42a793e8ac16959fSwap ETH2BSC114098852021-08-12 8:19:1247 days 4 hrs ago0x183c889fd83936d26545e9ae7fc23e202d117df4OUT 0x0b54eed12cc719d6222d3308def7df140f3adcf10 BNB0.00248868
0x7415c9803f697833c885c24f12b3edf9b51b102870b26a13e16206a06ef06d43Approve114096492021-08-12 8:07:2447 days 4 hrs ago0x183c889fd83936d26545e9ae7fc23e202d117df4OUT 0xfa5ee7359d643dbd6ba5716ee7b500f82d56af150 BNB0.00044166
0xfc58f0bbaad65dccca1d45d3d3e04bf30feb0d46ad87b31c4d277c7b55912ed2Register Swap Pa...114095922021-08-12 8:04:3347 days 4 hrs ago0x183c889fd83936d26545e9ae7fc23e202d117df4OUT 0x0b54eed12cc719d6222d3308def7df140f3adcf10 BNB0.00062435
0x5e1affce720d9d0863775d060734b797413f0a0ad770fecb05da8658d75362e8Delegate113325452021-08-09 14:54:5449 days 21 hrs ago0x183c889fd83936d26545e9ae7fc23e202d117df4OUT 0xfa5ee7359d643dbd6ba5716ee7b500f82d56af150 BNB0.00111654
0x03ce6c164ac3acca16bc919b155daf9fe4142055c165b796c982a3c14b1fc975Withdraw113226362021-08-09 6:39:2650 days 5 hrs ago0x183c889fd83936d26545e9ae7fc23e202d117df4OUT 0x6c1d8ab1e70e2732efca2e2ebaae23a107fedf160 BNB0.00071832
0xaa6dc4a2bfa5a41ed98a7a3e04797f89a496e0442756eddaeab6e7a10a7e09a2Deposit113226032021-08-09 6:37:4750 days 5 hrs ago0x183c889fd83936d26545e9ae7fc23e202d117df4OUT 0x6c1d8ab1e70e2732efca2e2ebaae23a107fedf160 BNB0.00122197
0x65852cd71fdce37cbbf0c6dcf3997c8bf8af73c2f84e26ce952c6d6fc8a5a0f9Approve113225962021-08-09 6:37:2650 days 5 hrs ago0x183c889fd83936d26545e9ae7fc23e202d117df4OUT 0x0c97bffaa448ea2e46d727add6038e6db25c74090 BNB0.00044106
0x0d842d30217c6f3ef440f449d39e079c3cb4c157e69954f2c62d372d69b323fcDeposit113225852021-08-09 6:36:5350 days 5 hrs ago0x183c889fd83936d26545e9ae7fc23e202d117df4OUT 0x6c1d8ab1e70e2732efca2e2ebaae23a107fedf160.01 BNB0.00154038
0x79f1d9d9bd1c655d4f311e1524a0a903ed2e55d9d0cc2805ac857a09f27fd331Deposit113225642021-08-09 6:35:5050 days 5 hrs ago0x183c889fd83936d26545e9ae7fc23e202d117df4OUT 0x6c1d8ab1e70e2732efca2e2ebaae23a107fedf160.01 BNB0.00080783
0x47613cbd2fc30a086a4df22cd5b96e09cfe7015dff5583b78f201a9a42092595Add113225322021-08-09 6:34:1450 days 6 hrs ago0x183c889fd83936d26545e9ae7fc23e202d117df4OUT 0x6c1d8ab1e70e2732efca2e2ebaae23a107fedf160 BNB0.00126897
0xae7497648cb2b547130127a638a6cb248bf7e49987477d98f35dfcecb7a2cb2aTransfer Ownersh...113225082021-08-09 6:33:0250 days 6 hrs ago0x183c889fd83936d26545e9ae7fc23e202d117df4OUT 0xfa5ee7359d643dbd6ba5716ee7b500f82d56af150 BNB0.00030938
0xc2485b614e3d68edf1143b8c00390377ad59301c5c8eaf68b9d2b36c3df6a9820x60c06040113224812021-08-09 6:31:4150 days 6 hrs ago0x183c889fd83936d26545e9ae7fc23e202d117df4OUT Contract Creation0 BNB0.17987005
0x5a8c44f0cad55d10b905cd06ad292b17e03087df01f707a627481b2584fd3673Transfer B Mint ...113224402021-08-09 6:29:3850 days 6 hrs ago0x183c889fd83936d26545e9ae7fc23e202d117df4OUT 0x2ff195ad6672a2727f9bf058523543b2af45656c0 BNB0.00033809
0xdc0cb9492395f439246f898f84c71477e58de7a46f85066b664b6c037bb2d800Emergency Withdr...112785682021-08-07 17:55:5151 days 18 hrs ago0x183c889fd83936d26545e9ae7fc23e202d117df4OUT 0x2ff195ad6672a2727f9bf058523543b2af45656c0 BNB0.00025185
0x002484e272379ff9e7ca2129d13ebb9cb5ed42e45203d76824e2d12738164f99Deposit112785492021-08-07 17:54:5451 days 18 hrs ago0x183c889fd83936d26545e9ae7fc23e202d117df4OUT 0x2ff195ad6672a2727f9bf058523543b2af45656c0.1 BNB0.00104985
0x50454a3e51192eda7063b305c7de7046012489777e925ed661b9321ddb0ac0ccDeposit112785282021-08-07 17:53:5151 days 18 hrs ago0x183c889fd83936d26545e9ae7fc23e202d117df4OUT 0x2ff195ad6672a2727f9bf058523543b2af45656c0.06 BNB0.00141576
0xeac1e37734ff8604c17c5df3e54f8fb40b6ff29ea0514d066a8010bebf84ce25Withdraw112785082021-08-07 17:52:5151 days 18 hrs ago0x183c889fd83936d26545e9ae7fc23e202d117df4OUT 0x2ff195ad6672a2727f9bf058523543b2af45656c0 BNB0.001128
0x96fbc111eabfc841f70983d6f0d6f26a20677433f87a8e7ec2270b266ba8b4caTransfer112783522021-08-07 17:45:0351 days 18 hrs ago0x183c889fd83936d26545e9ae7fc23e202d117df4OUT 0x0c97bffaa448ea2e46d727add6038e6db25c74090 BNB0.00051127
0x404f379222e294c725a220ffa9156b181e267495f98f3bcb7f6e86d33f625f7cWithdraw112782822021-08-07 17:41:3351 days 18 hrs ago0x183c889fd83936d26545e9ae7fc23e202d117df4OUT 0x2ff195ad6672a2727f9bf058523543b2af45656c0 BNB0.0009764
0xb7ca1fa8802016f8fb2ad303d38ae8656e3ea43455a08167c9c962c4af9bb459Deposit112782532021-08-07 17:40:0651 days 18 hrs ago0x183c889fd83936d26545e9ae7fc23e202d117df4OUT 0x2ff195ad6672a2727f9bf058523543b2af45656c0.1 BNB0.00115162
0x5d309dfe3511c00be30b9de5d9a33aa5a38b9dfcc050161485f1aceff64478a1Approve112781512021-08-07 17:35:0051 days 19 hrs ago0x183c889fd83936d26545e9ae7fc23e202d117df4OUT 0x0c97bffaa448ea2e46d727add6038e6db25c74090 BNB0.00044118
[ Download CSV Export 
Latest 4 internal transactions
Parent Txn Hash Block From To Value
0x03ce6c164ac3acca16bc919b155daf9fe4142055c165b796c982a3c14b1fc975113226362021-08-09 6:39:2650 days 5 hrs ago 0x6c1d8ab1e70e2732efca2e2ebaae23a107fedf160x183c889fd83936d26545e9ae7fc23e202d117df40.02 BNB
0xdc0cb9492395f439246f898f84c71477e58de7a46f85066b664b6c037bb2d800112785682021-08-07 17:55:5151 days 18 hrs ago 0x2ff195ad6672a2727f9bf058523543b2af45656c0x183c889fd83936d26545e9ae7fc23e202d117df40.15 BNB
0xeac1e37734ff8604c17c5df3e54f8fb40b6ff29ea0514d066a8010bebf84ce25112785082021-08-07 17:52:5151 days 18 hrs ago 0x2ff195ad6672a2727f9bf058523543b2af45656c0x183c889fd83936d26545e9ae7fc23e202d117df40.05 BNB
0x404f379222e294c725a220ffa9156b181e267495f98f3bcb7f6e86d33f625f7c112782822021-08-07 17:41:3351 days 18 hrs ago 0x2ff195ad6672a2727f9bf058523543b2af45656c0x183c889fd83936d26545e9ae7fc23e202d117df40 BNB
[ Download CSV Export 
Loading

Contract Name:
0 BNB

Compiler Version
0

Optimization Enabled:
0 BNB

Other Settings:
-NA-
Block Transaction Gas Used Reward
Age Block Fee Address BC Fee Address Voting Power Jailed Incoming
Block Uncle Number Difficulty Gas Used Reward
Loading